Time;durP1;ratioP1;P1;durP2;ratioP2;P2;SDS_P1;SDS_P2;PMS_P1;PMS_P2;Temp;Humidity;BMP_temperature;BMP_pressure;BME280_temperature;BME280_humidity;BME280_pressure;Samples;Min_cycle;Max_cycle;Signal;HPM_P1;HPM_P2
2022/09/11 00:00:40;;;;;;;17.00;7.90;;;15.20;99.90;;;;;;5026668;28;20517;-74
2022/09/11 00:03:06;;;;;;;15.32;7.20;;;15.30;99.90;;;;;;5025511;28;20030;-74
2022/09/11 00:05:37;;;;;;;16.13;8.38;;;15.30;99.90;;;;;;5025949;28;20088;-73
2022/09/11 00:08:03;;;;;;;18.13;7.18;;;15.30;99.90;;;;;;5025173;28;20107;-73
2022/09/11 00:10:28;;;;;;;20.75;9.07;;;15.40;99.90;;;;;;5026421;28;20502;-73
2022/09/11 00:12:54;;;;;;;15.45;8.15;;;15.40;99.90;;;;;;5025314;28;20064;-73
2022/09/11 00:15:20;;;;;;;15.07;8.18;;;15.40;99.90;;;;;;5027111;28;20033;-74
2022/09/11 00:17:45;;;;;;;19.65;8.60;;;15.40;99.90;;;;;;5026806;28;20022;-73
2022/09/11 00:20:11;;;;;;;15.68;8.48;;;15.50;99.90;;;;;;5027365;28;20033;-73
2022/09/11 00:22:36;;;;;;;13.85;8.40;;;15.50;99.90;;;;;;5030236;28;20053;-74
2022/09/11 00:25:02;;;;;;;17.00;8.13;;;15.40;99.90;;;;;;5029990;28;20145;-73
2022/09/11 00:27:28;;;;;;;17.30;8.13;;;15.40;99.90;;;;;;5031785;28;20034;-74
2022/09/11 00:29:53;;;;;;;20.55;9.68;;;15.30;99.90;;;;;;5025056;28;20094;-74
2022/09/11 00:32:19;;;;;;;14.30;7.72;;;15.40;99.90;;;;;;5026385;28;20037;-73
2022/09/11 00:34:45;;;;;;;18.33;8.52;;;15.30;99.90;;;;;;5025118;28;20030;-73
2022/09/11 00:37:11;;;;;;;17.75;8.75;;;15.30;99.90;;;;;;5026567;28;20072;-73
2022/09/11 00:39:36;;;;;;;17.70;9.07;;;15.30;99.90;;;;;;5026145;28;20393;-74
2022/09/11 00:42:04;;;;;;;20.30;9.10;;;15.40;99.90;;;;;;5025403;28;20045;-73
2022/09/11 00:44:29;;;;;;;18.35;8.77;;;15.30;99.90;;;;;;5025170;28;20061;-74
2022/09/11 00:46:59;;;;;;;15.13;9.13;;;15.30;99.90;;;;;;5025158;28;20440;-73
2022/09/11 00:49:39;;;;;;;14.98;8.35;;;15.30;99.90;;;;;;5025775;28;20129;-73
2022/09/11 00:52:08;;;;;;;16.92;7.85;;;15.30;99.90;;;;;;5019577;28;20047;-73
2022/09/11 00:54:45;;;;;;;14.13;8.30;;;15.20;99.90;;;;;;5021127;28;20076;-73
2022/09/11 00:57:12;;;;;;;17.90;8.75;;;15.30;99.90;;;;;;5022907;28;20037;-73
2022/09/11 00:59:40;;;;;;;17.52;9.23;;;15.30;99.90;;;;;;5024876;28;20033;-74
2022/09/11 01:02:11;;;;;;;21.92;8.85;;;15.30;99.90;;;;;;5021297;28;20041;-74
2022/09/11 01:04:36;;;;;;;17.50;9.00;;;15.30;99.90;;;;;;5032757;28;20034;-73
2022/09/11 01:07:03;;;;;;;16.67;9.05;;;15.30;99.90;;;;;;5034078;28;20081;-74
2022/09/11 01:09:30;;;;;;;15.73;8.07;;;15.30;99.90;;;;;;5025302;28;20599;-74
2022/09/11 01:12:02;;;;;;;17.17;8.45;;;15.30;99.90;;;;;;5024797;28;20041;-74
2022/09/11 01:14:34;;;;;;;19.42;9.05;;;15.20;99.90;;;;;;5024877;28;20037;-74
2022/09/11 01:17:09;;;;;;;17.17;8.88;;;15.20;99.90;;;;;;5024946;28;20036;-74
2022/09/11 01:20:15;;;;;;;15.80;8.43;;;15.20;99.90;;;;;;5022182;28;20034;-74
2022/09/11 01:23:20;;;;;;;16.85;8.38;;;15.20;99.90;;;;;;5021539;28;20033;-74
2022/09/11 01:26:04;;;;;;;17.55;8.82;;;15.10;99.90;;;;;;5021121;28;20091;-73
2022/09/11 01:28:34;;;;;;;16.80;8.48;;;15.10;99.90;;;;;;5025428;28;20065;-73
2022/09/11 01:31:08;;;;;;;17.00;8.80;;;15.10;99.90;;;;;;5023315;28;20042;-74
2022/09/11 01:33:43;;;;;;;16.17;8.82;;;15.10;99.90;;;;;;5020639;28;20037;-74
2022/09/11 01:36:09;;;;;;;19.48;9.60;;;15.00;99.90;;;;;;5021713;28;20037;-73
2022/09/11 01:38:52;;;;;;;16.77;8.70;;;15.00;99.90;;;;;;5028599;28;20426;-73
2022/09/11 01:41:26;;;;;;;17.58;8.43;;;15.00;99.90;;;;;;5030045;28;20045;-72
2022/09/11 01:44:14;;;;;;;17.00;8.85;;;14.90;99.90;;;;;;5029752;28;20030;-74
2022/09/11 01:46:46;;;;;;;15.98;9.00;;;14.90;99.90;;;;;;5022319;28;20093;-73
2022/09/11 01:49:34;;;;;;;15.68;8.40;;;14.90;99.90;;;;;;5024596;28;20474;-73
2022/09/11 01:52:03;;;;;;;16.00;7.75;;;14.80;99.90;;;;;;5024679;28;20044;-73
2022/09/11 01:54:34;;;;;;;16.58;9.48;;;14.80;99.90;;;;;;5025196;28;20045;-74
2022/09/11 01:57:08;;;;;;;16.42;8.52;;;14.80;99.90;;;;;;5020266;28;20469;-74
2022/09/11 01:59:43;;;;;;;15.65;8.63;;;14.80;99.90;;;;;;5021386;28;20044;-73
2022/09/11 02:02:12;;;;;;;18.42;8.75;;;14.80;99.90;;;;;;5023549;28;20068;-72
2022/09/11 02:04:54;;;;;;;17.50;8.45;;;14.70;99.90;;;;;;5024070;28;20048;-73
2022/09/11 02:07:32;;;;;;;17.95;8.75;;;14.70;99.90;;;;;;5024363;28;20038;-73
2022/09/11 02:10:08;;;;;;;18.00;9.93;;;14.70;99.90;;;;;;5023274;28;20042;-74
2022/09/11 02:12:57;;;;;;;19.23;9.32;;;14.60;99.90;;;;;;5021056;28;20130;-74
2022/09/11 02:15:29;;;;;;;19.08;9.35;;;14.60;99.90;;;;;;5012757;28;20046;-73
2022/09/11 02:18:04;;;;;;;20.23;9.15;;;14.60;99.90;;;;;;5023679;28;20037;-73
2022/09/11 02:20:30;;;;;;;22.70;9.90;;;14.60;99.90;;;;;;5021226;28;20715;-73
2022/09/11 02:22:56;;;;;;;19.10;10.02;;;14.60;99.90;;;;;;5023622;28;20116;-73
2022/09/11 02:25:22;;;;;;;18.48;9.35;;;14.60;99.90;;;;;;5024529;28;20041;-74
2022/09/11 02:27:47;;;;;;;21.17;10.93;;;14.60;99.90;;;;;;5022923;28;20166;-73
2022/09/11 02:30:13;;;;;;;19.30;10.52;;;14.60;99.90;;;;;;5026636;28;20042;-72
2022/09/11 02:32:42;;;;;;;21.85;11.27;;;14.60;99.90;;;;;;5032004;28;20033;-73
2022/09/11 02:35:09;;;;;;;19.35;9.85;;;14.60;99.90;;;;;;5034252;28;20088;-74
2022/09/11 02:37:52;;;;;;;20.17;10.32;;;14.60;99.90;;;;;;5036426;28;20136;-73
2022/09/11 02:40:51;;;;;;;20.38;10.30;;;14.60;99.90;;;;;;5031117;28;20087;-73
2022/09/11 02:43:31;;;;;;;18.17;9.52;;;14.50;99.90;;;;;;5031530;28;20030;-72
2022/09/11 02:46:28;;;;;;;20.67;10.13;;;14.50;99.90;;;;;;5023773;28;20068;-74
2022/09/11 02:49:08;;;;;;;21.08;10.80;;;14.50;99.90;;;;;;5026707;28;20319;-73
2022/09/11 02:52:00;;;;;;;18.10;9.52;;;14.50;99.90;;;;;;5024833;28;20452;-74
2022/09/11 02:54:56;;;;;;;22.65;10.13;;;14.40;99.90;;;;;;5019211;28;20042;-74
2022/09/11 02:57:29;;;;;;;20.10;10.30;;;14.40;99.90;;;;;;5030012;28;20041;-73
2022/09/11 03:00:01;;;;;;;23.50;11.02;;;14.40;99.90;;;;;;5028324;28;20045;-73
2022/09/11 03:02:30;;;;;;;22.05;10.27;;;14.40;99.90;;;;;;5023668;28;20052;-73
2022/09/11 03:04:56;;;;;;;20.48;10.00;;;14.40;99.90;;;;;;5022774;28;20041;-73
2022/09/11 03:07:24;;;;;;;21.23;9.73;;;14.40;99.90;;;;;;5027298;28;20052;-73
2022/09/11 03:09:50;;;;;;;19.38;9.85;;;14.40;99.90;;;;;;5026482;28;20111;-73
2022/09/11 03:12:16;;;;;;;21.45;10.70;;;14.30;99.90;;;;;;5027762;28;20037;-73
2022/09/11 03:14:42;;;;;;;18.67;10.60;;;14.30;99.90;;;;;;5026667;28;20053;-73
2022/09/11 03:17:08;;;;;;;17.35;9.35;;;14.30;99.90;;;;;;5027019;28;20041;-73
2022/09/11 03:19:34;;;;;;;20.13;9.43;;;14.20;99.90;;;;;;5026659;28;20037;-74
2022/09/11 03:22:01;;;;;;;19.30;9.10;;;14.20;99.90;;;;;;5025200;28;20383;-74
2022/09/11 03:24:27;;;;;;;21.85;10.88;;;14.20;99.90;;;;;;5025156;28;20561;-74
2022/09/11 03:26:53;;;;;;;21.27;10.65;;;14.20;99.90;;;;;;5024529;28;20116;-73
2022/09/11 03:29:18;;;;;;;18.00;9.75;;;14.20;99.90;;;;;;5027303;28;20036;-73
2022/09/11 03:31:44;;;;;;;19.15;9.82;;;14.20;99.90;;;;;;5026654;28;20072;-72
2022/09/11 03:34:09;;;;;;;19.38;9.45;;;14.20;99.90;;;;;;5026627;28;20033;-74
2022/09/11 03:36:36;;;;;;;19.17;9.68;;;14.20;99.90;;;;;;5027491;28;20050;-73
2022/09/11 03:39:02;;;;;;;17.27;9.52;;;14.10;99.90;;;;;;5024594;28;20084;-73
2022/09/11 03:41:28;;;;;;;21.27;11.02;;;14.10;99.90;;;;;;5027003;28;20513;-73
2022/09/11 03:43:53;;;;;;;17.02;9.70;;;14.10;99.90;;;;;;5025756;28;20068;-74
2022/09/11 03:46:19;;;;;;;17.15;8.75;;;14.10;99.90;;;;;;5026047;28;20065;-73
2022/09/11 03:48:47;;;;;;;19.48;9.63;;;14.10;99.90;;;;;;5026520;28;20049;-73
2022/09/11 03:51:14;;;;;;;17.67;10.32;;;14.10;99.90;;;;;;5026738;28;20029;-74
2022/09/11 03:53:41;;;;;;;19.40;9.70;;;14.10;99.90;;;;;;5026370;28;20033;-74
2022/09/11 03:56:06;;;;;;;23.00;11.52;;;14.00;99.90;;;;;;5027273;28;20486;-74
2022/09/11 03:58:32;;;;;;;16.88;9.48;;;14.00;99.90;;;;;;5025689;28;20055;-73
2022/09/11 04:00:58;;;;;;;20.55;10.10;;;14.00;99.90;;;;;;5030842;28;20048;-74
2022/09/11 04:03:23;;;;;;;27.33;11.50;;;14.00;99.90;;;;;;5035123;28;20048;-73
2022/09/11 04:06:01;;;;;;;17.65;9.93;;;14.00;99.90;;;;;;5033892;28;20033;-73
2022/09/11 04:08:32;;;;;;;16.40;8.65;;;14.00;99.90;;;;;;5028756;28;20037;-74
2022/09/11 04:10:59;;;;;;;17.25;8.93;;;13.90;99.90;;;;;;5023287;28;20354;-73
2022/09/11 04:13:26;;;;;;;18.30;10.07;;;13.90;99.90;;;;;;5027373;28;20030;-73
2022/09/11 04:15:52;;;;;;;20.33;8.98;;;13.90;99.90;;;;;;5022485;28;20034;-72
2022/09/11 04:18:18;;;;;;;20.25;9.80;;;13.90;99.90;;;;;;5019142;28;20044;-74
2022/09/11 04:20:43;;;;;;;22.95;10.45;;;13.90;99.90;;;;;;5022046;28;20077;-72
2022/09/11 04:23:09;;;;;;;21.08;10.35;;;14.00;99.90;;;;;;5026683;28;20141;-73
2022/09/11 04:25:34;;;;;;;22.73;10.85;;;13.90;99.90;;;;;;5026386;28;20069;-74
2022/09/11 04:28:00;;;;;;;17.55;9.73;;;13.90;99.90;;;;;;5026076;28;20058;-73
2022/09/11 04:30:26;;;;;;;22.35;10.57;;;13.90;99.90;;;;;;5027498;28;20472;-73
2022/09/11 04:32:51;;;;;;;20.75;11.02;;;13.90;99.90;;;;;;5024988;28;20099;-74
2022/09/11 04:35:17;;;;;;;24.27;11.52;;;13.90;99.90;;;;;;5025695;28;20030;-73
2022/09/11 04:37:43;;;;;;;16.58;9.27;;;13.90;99.90;;;;;;5025979;28;20041;-72
2022/09/11 04:40:09;;;;;;;18.17;9.57;;;13.80;99.90;;;;;;5026191;28;20517;-72
2022/09/11 04:42:35;;;;;;;21.83;9.98;;;13.80;99.90;;;;;;5026004;28;20048;-73
2022/09/11 04:45:00;;;;;;;18.40;9.45;;;13.80;99.90;;;;;;5025334;28;20041;-73
2022/09/11 04:47:27;;;;;;;19.20;9.75;;;13.80;99.90;;;;;;5026292;28;20095;-73
2022/09/11 04:49:53;;;;;;;18.92;9.02;;;13.80;99.90;;;;;;5025334;28;20044;-73
2022/09/11 04:52:19;;;;;;;21.20;9.98;;;13.70;99.90;;;;;;5025522;28;20045;-72
2022/09/11 04:54:45;;;;;;;20.45;9.98;;;13.70;99.90;;;;;;5024378;28;20200;-74
2022/09/11 04:57:11;;;;;;;17.08;9.32;;;13.70;99.90;;;;;;5025528;28;20596;-73
2022/09/11 04:59:37;;;;;;;22.67;10.88;;;13.70;99.90;;;;;;5025350;28;20045;-73
2022/09/11 05:02:03;;;;;;;19.98;10.40;;;13.70;99.90;;;;;;5024753;28;20029;-73
2022/09/11 05:04:29;;;;;;;19.73;10.43;;;13.70;99.90;;;;;;5024601;28;20869;-74
2022/09/11 05:06:54;;;;;;;20.45;10.40;;;13.70;99.90;;;;;;5025049;28;20061;-73
2022/09/11 05:09:20;;;;;;;19.20;9.90;;;13.70;99.90;;;;;;5025368;28;20065;-71
2022/09/11 05:11:46;;;;;;;20.08;10.68;;;13.70;99.90;;;;;;5024609;28;20033;-73
2022/09/11 05:14:12;;;;;;;22.13;11.23;;;13.70;99.90;;;;;;5025166;28;20037;-74
2022/09/11 05:16:37;;;;;;;17.17;9.65;;;13.70;99.90;;;;;;5025201;28;20603;-73
2022/09/11 05:19:04;;;;;;;23.67;10.95;;;13.70;99.90;;;;;;5024872;28;20034;-73
2022/09/11 05:21:31;;;;;;;21.45;10.63;;;13.70;99.90;;;;;;5026921;28;20093;-75
2022/09/11 05:23:59;;;;;;;18.00;9.75;;;13.70;99.90;;;;;;5026154;28;20045;-73
2022/09/11 05:26:31;;;;;;;16.65;8.90;;;13.70;99.90;;;;;;5027757;28;20038;-75
2022/09/11 05:29:10;;;;;;;18.75;10.45;;;13.70;99.90;;;;;;5033070;28;20041;-73
2022/09/11 05:31:36;;;;;;;22.20;10.68;;;13.70;99.90;;;;;;5032643;28;20510;-73
2022/09/11 05:34:02;;;;;;;19.35;9.55;;;13.70;99.90;;;;;;5025108;28;20086;-73
2022/09/11 05:36:29;;;;;;;22.85;10.35;;;13.70;99.90;;;;;;5025505;28;20440;-73
2022/09/11 05:38:56;;;;;;;24.77;9.63;;;13.70;99.90;;;;;;5024571;28;20408;-73
2022/09/11 05:41:22;;;;;;;18.08;9.82;;;13.80;99.90;;;;;;5025267;28;20065;-73
2022/09/11 05:43:48;;;;;;;19.50;9.13;;;13.80;99.90;;;;;;5019759;28;20037;-73
2022/09/11 05:46:15;;;;;;;20.48;10.23;;;13.80;99.90;;;;;;5024994;28;20103;-73
2022/09/11 05:48:42;;;;;;;21.15;9.85;;;13.80;99.90;;;;;;5025568;28;20053;-72
2022/09/11 05:51:12;;;;;;;23.60;9.80;;;13.90;99.90;;;;;;5023832;28;20033;-74
2022/09/11 05:53:38;;;;;;;19.48;9.50;;;13.90;99.90;;;;;;5024489;28;20041;-72
2022/09/11 05:56:09;;;;;;;17.23;8.98;;;13.90;99.90;;;;;;5024099;28;20583;-73
2022/09/11 05:58:35;;;;;;;22.23;10.43;;;14.00;99.90;;;;;;5024887;28;20041;-73
2022/09/11 06:01:10;;;;;;;21.30;9.25;;;14.00;99.90;;;;;;5023860;28;20021;-74
2022/09/11 06:03:36;;;;;;;20.20;9.73;;;14.10;99.90;;;;;;5024143;28;20041;-74
2022/09/11 06:06:04;;;;;;;16.73;8.88;;;14.10;99.90;;;;;;5027167;28;20128;-74
2022/09/11 06:08:30;;;;;;;17.67;8.93;;;14.20;99.90;;;;;;5027003;28;20034;-73
2022/09/11 06:10:57;;;;;;;20.17;10.05;;;14.20;99.90;;;;;;5016979;28;20066;-73
2022/09/11 06:13:28;;;;;;;19.30;8.63;;;14.30;99.90;;;;;;5028140;28;20034;-73
2022/09/11 06:15:54;;;;;;;16.70;8.98;;;14.30;99.90;;;;;;5028059;28;20037;-73
2022/09/11 06:18:20;;;;;;;18.60;9.40;;;14.30;99.90;;;;;;5028849;28;20025;-73
2022/09/11 06:21:04;;;;;;;19.77;10.20;;;14.40;99.90;;;;;;5027790;28;20398;-72
2022/09/11 06:23:30;;;;;;;15.90;8.95;;;14.40;99.90;;;;;;5026015;28;20324;-73
2022/09/11 06:26:09;;;;;;;17.55;9.32;;;14.50;99.90;;;;;;5027723;28;20573;-74
2022/09/11 06:28:36;;;;;;;17.70;9.18;;;14.50;99.90;;;;;;5026873;28;20536;-74
2022/09/11 06:31:06;;;;;;;17.45;8.82;;;14.60;99.90;;;;;;5027754;28;20123;-73
2022/09/11 06:33:34;;;;;;;14.13;7.65;;;14.70;99.90;;;;;;5031677;28;20506;-73
2022/09/11 06:36:02;;;;;;;18.10;8.75;;;14.80;99.90;;;;;;5033025;28;20103;-73
2022/09/11 06:38:30;;;;;;;16.80;8.88;;;14.90;99.90;;;;;;5029964;28;20120;-73
2022/09/11 06:40:56;;;;;;;17.50;9.00;;;15.00;99.90;;;;;;5027625;28;20041;-74
2022/09/11 06:43:22;;;;;;;17.02;8.70;;;15.10;99.90;;;;;;5028090;28;20099;-74
2022/09/11 06:45:48;;;;;;;21.95;9.52;;;15.20;99.90;;;;;;5027529;28;20034;-73
2022/09/11 06:48:18;;;;;;;15.75;8.75;;;15.30;99.90;;;;;;5030949;28;20113;-73
2022/09/11 06:50:44;;;;;;;18.35;9.35;;;15.30;99.90;;;;;;5030478;28;20071;-72
2022/09/11 06:53:11;;;;;;;17.10;8.77;;;15.40;99.90;;;;;;5036878;28;20036;-73
2022/09/11 06:55:39;;;;;;;18.95;9.38;;;15.50;99.90;;;;;;5037966;28;20042;-74
2022/09/11 06:58:05;;;;;;;17.30;9.18;;;15.60;99.90;;;;;;5033323;28;20025;-73
2022/09/11 07:00:32;;;;;;;17.92;9.55;;;15.70;99.90;;;;;;5026982;28;20489;-73
2022/09/11 07:02:58;;;;;;;19.58;9.85;;;15.80;99.90;;;;;;5026761;28;20039;-74
2022/09/11 07:05:24;;;;;;;16.05;7.82;;;15.90;99.90;;;;;;5027204;28;20026;-73
2022/09/11 07:07:54;;;;;;;13.43;7.40;;;16.00;99.90;;;;;;5026804;28;20533;-74
2022/09/11 07:10:21;;;;;;;13.02;7.05;;;16.00;99.90;;;;;;5023114;28;20042;-73
2022/09/11 07:12:47;;;;;;;14.77;7.75;;;16.10;99.90;;;;;;5025130;28;20194;-73
2022/09/11 07:15:13;;;;;;;10.30;5.57;;;16.20;99.90;;;;;;5026967;28;20044;-72
2022/09/11 07:17:39;;;;;;;9.50;5.95;;;16.30;99.90;;;;;;5027463;28;20676;-74
2022/09/11 07:20:07;;;;;;;8.77;5.13;;;16.30;99.90;;;;;;5026690;28;20044;-74
2022/09/11 07:22:36;;;;;;;10.52;6.20;;;16.40;99.90;;;;;;5026543;28;20069;-74
2022/09/11 07:25:02;;;;;;;11.18;6.82;;;16.50;99.90;;;;;;5026140;28;20453;-73
2022/09/11 07:27:30;;;;;;;14.50;7.10;;;16.60;99.90;;;;;;5027603;28;20103;-73
2022/09/11 07:29:56;;;;;;;12.52;7.40;;;16.60;99.90;;;;;;5017562;28;20034;-72
2022/09/11 07:32:21;;;;;;;13.23;7.82;;;16.80;99.90;;;;;;5019195;28;20111;-73
2022/09/11 07:34:48;;;;;;;13.98;8.18;;;16.80;99.90;;;;;;5027615;28;20037;-72
2022/09/11 07:37:14;;;;;;;11.68;7.15;;;16.90;99.90;;;;;;5027140;28;20034;-72
2022/09/11 07:39:39;;;;;;;12.68;7.78;;;17.00;99.90;;;;;;5025687;28;20103;-74
2022/09/11 07:42:06;;;;;;;13.75;7.75;;;17.10;99.90;;;;;;5016366;28;20040;-73
2022/09/11 07:44:32;;;;;;;13.30;7.63;;;17.20;99.90;;;;;;5024343;28;20069;-73
2022/09/11 07:46:58;;;;;;;14.18;7.05;;;17.30;99.90;;;;;;5029386;28;20116;-75
2022/09/11 07:49:26;;;;;;;11.27;6.55;;;17.40;99.90;;;;;;5030969;28;20741;-72
2022/09/11 07:51:53;;;;;;;10.45;5.43;;;17.50;99.90;;;;;;5019854;28;20208;-75
2022/09/11 07:54:20;;;;;;;8.20;4.55;;;17.60;99.90;;;;;;5036422;28;20030;-74
2022/09/11 07:56:46;;;;;;;8.02;5.15;;;17.70;99.90;;;;;;5024048;28;20095;-75
2022/09/11 07:59:12;;;;;;;10.13;5.43;;;17.70;99.90;;;;;;5029225;28;20033;-74
2022/09/11 08:01:38;;;;;;;7.95;4.70;;;17.80;99.90;;;;;;5021859;28;20409;-73
2022/09/11 08:04:10;;;;;;;11.02;5.45;;;17.90;99.90;;;;;;5017769;28;20045;-73
2022/09/11 08:06:37;;;;;;;8.75;4.43;;;18.00;99.90;;;;;;5018941;28;20549;-73
2022/09/11 08:09:13;;;;;;;9.27;4.88;;;18.00;99.90;;;;;;5016135;28;20041;-74
2022/09/11 08:11:41;;;;;;;7.10;4.13;;;18.10;99.90;;;;;;5018363;28;20029;-73
2022/09/11 08:14:10;;;;;;;6.00;3.17;;;18.10;99.90;;;;;;5017368;28;20045;-73
2022/09/11 08:16:36;;;;;;;5.72;3.33;;;18.30;99.90;;;;;;5022490;28;20494;-74
2022/09/11 08:19:02;;;;;;;5.90;3.30;;;18.30;99.90;;;;;;5019165;28;20083;-73
2022/09/11 08:21:28;;;;;;;6.00;2.85;;;18.30;99.90;;;;;;5022004;28;20055;-73
2022/09/11 08:23:54;;;;;;;7.07;3.78;;;18.30;99.90;;;;;;5018867;28;20041;-73
2022/09/11 08:26:25;;;;;;;5.50;3.00;;;18.40;99.90;;;;;;5029167;28;20045;-73
2022/09/11 08:28:53;;;;;;;5.80;2.97;;;18.30;99.90;;;;;;5023201;28;20094;-73
2022/09/11 08:31:21;;;;;;;5.13;1.88;;;18.40;99.90;;;;;;5027974;28;20037;-73
2022/09/11 08:33:48;;;;;;;2.20;1.70;;;18.40;99.90;;;;;;5017927;28;20124;-73
2022/09/11 08:36:14;;;;;;;6.05;2.38;;;18.50;99.90;;;;;;5023055;28;20112;-73
2022/09/11 08:38:41;;;;;;;7.95;3.25;;;18.50;99.90;;;;;;5021663;28;20086;-71
2022/09/11 08:41:29;;;;;;;3.53;2.08;;;18.60;99.90;;;;;;5017679;28;20137;-71
2022/09/11 08:44:04;;;;;;;4.60;1.67;;;18.50;99.90;;;;;;5016608;28;20047;-72
2022/09/11 08:46:41;;;;;;;7.60;2.20;;;18.60;99.90;;;;;;5017533;28;20509;-71
2022/09/11 08:49:36;;;;;;;3.35;1.90;;;18.70;99.90;;;;;;5019279;28;20080;-71
2022/09/11 08:52:04;;;;;;;2.38;1.40;;;18.80;99.90;;;;;;5023255;28;20033;-71
2022/09/11 08:54:36;;;;;;;4.07;1.60;;;18.90;99.90;;;;;;5023709;28;20037;-70
2022/09/11 08:57:24;;;;;;;3.97;1.30;;;19.00;99.90;;;;;;5022918;28;20030;-73
2022/09/11 08:59:58;;;;;;;2.67;1.48;;;19.00;99.90;;;;;;5021988;28;20115;-71
2022/09/11 09:02:33;;;;;;;3.10;1.50;;;19.20;99.90;;;;;;5025078;28;20063;-72
2022/09/11 09:05:16;;;;;;;5.88;2.47;;;19.30;99.90;;;;;;5023666;28;20029;-72
2022/09/11 09:08:08;;;;;;;4.32;2.75;;;19.50;99.90;;;;;;5021978;28;20104;-72
2022/09/11 09:10:46;;;;;;;7.82;3.03;;;20.00;99.90;;;;;;5022133;28;20025;-72
2022/09/11 09:13:44;;;;;;;3.22;2.40;;;20.20;99.90;;;;;;5020451;28;20048;-71
2022/09/11 09:16:39;;;;;;;3.65;1.85;;;20.40;99.90;;;;;;5021127;28;20038;-72
2022/09/11 09:19:16;;;;;;;4.95;2.55;;;20.70;99.90;;;;;;5019505;28;20034;-70
2022/09/11 09:21:48;;;;;;;4.28;2.30;;;21.00;99.90;;;;;;5020458;28;20029;-70
2022/09/11 09:24:20;;;;;;;5.40;1.80;;;21.10;99.90;;;;;;5023036;28;20057;-70
2022/09/11 09:26:54;;;;;;;5.07;1.80;;;21.20;99.90;;;;;;5016755;28;20042;-71
2022/09/11 09:29:29;;;;;;;2.97;1.80;;;21.30;99.90;;;;;;5019194;28;20174;-72
2022/09/11 09:32:11;;;;;;;3.65;1.73;;;21.40;99.90;;;;;;5022041;28;20033;-72
2022/09/11 09:34:41;;;;;;;3.90;1.70;;;21.40;99.90;;;;;;5017618;28;20044;-73
2022/09/11 09:37:22;;;;;;;3.35;1.70;;;21.50;99.90;;;;;;5019023;28;20057;-72
2022/09/11 09:39:49;;;;;;;2.33;1.23;;;21.50;99.90;;;;;;5016672;28;20081;-70
2022/09/11 09:42:33;;;;;;;1.65;1.00;;;21.50;99.90;;;;;;5024598;28;20037;-71
2022/09/11 09:45:23;;;;;;;2.40;0.95;;;21.60;99.90;;;;;;5023258;28;20037;-70
2022/09/11 09:47:49;;;;;;;9.32;1.70;;;21.70;99.90;;;;;;4999815;28;20069;-70
2022/09/11 09:50:21;;;;;;;4.30;1.13;;;21.70;99.90;;;;;;5024307;28;20056;-70
2022/09/11 09:52:48;;;;;;;3.08;1.30;;;21.70;99.90;;;;;;5023153;28;20096;-71
2022/09/11 09:55:17;;;;;;;6.30;1.27;;;21.60;99.90;;;;;;5024186;28;20040;-70
2022/09/11 09:57:43;;;;;;;1.52;0.73;;;21.60;99.90;;;;;;5024340;28;20125;-73
2022/09/11 10:00:08;;;;;;;3.25;1.33;;;21.60;99.90;;;;;;5023960;28;20125;-70
2022/09/11 10:02:53;;;;;;;3.47;0.60;;;21.70;99.90;;;;;;5024575;28;20132;-71
2022/09/11 10:05:18;;;;;;;1.92;0.93;;;21.60;99.90;;;;;;5022491;28;20037;-71
2022/09/11 10:07:52;;;;;;;1.67;0.82;;;21.40;99.90;;;;;;5026792;28;20034;-72
2022/09/11 10:10:38;;;;;;;1.77;1.00;;;21.20;99.90;;;;;;5025542;28;20037;-73
2022/09/11 10:13:17;;;;;;;2.97;0.88;;;21.10;99.90;;;;;;5023902;28;20113;-71
2022/09/11 10:15:43;;;;;;;3.22;0.70;;;21.00;99.90;;;;;;5021578;28;20120;-73
2022/09/11 10:18:28;;;;;;;1.75;0.77;;;21.10;99.90;;;;;;5024342;28;20108;-72
2022/09/11 10:21:12;;;;;;;2.20;0.88;;;21.20;99.90;;;;;;5023484;28;20533;-72
2022/09/11 10:23:57;;;;;;;3.25;1.20;;;21.10;99.90;;;;;;5019768;28;20121;-72
2022/09/11 10:26:38;;;;;;;6.00;1.55;;;20.90;99.90;;;;;;5022839;28;20029;-72
2022/09/11 10:29:10;;;;;;;;;;;20.70;99.90;;;;;;5022212;28;20084;-73
2022/09/11 10:31:39;;;;;;;4.35;1.63;;;20.50;99.90;;;;;;5022231;28;19917;-71
2022/09/11 10:34:06;;;;;;;3.70;1.27;;;20.40;99.90;;;;;;5022029;28;20040;-70
2022/09/11 10:36:33;;;;;;;2.38;1.15;;;20.40;99.90;;;;;;5021093;28;20033;-71
2022/09/11 10:39:00;;;;;;;2.42;0.90;;;20.30;99.90;;;;;;5023175;28;20121;-71
2022/09/11 10:41:27;;;;;;;5.38;1.90;;;20.30;99.90;;;;;;5024239;28;20053;-73
2022/09/11 10:43:55;;;;;;;2.85;1.05;;;20.40;99.90;;;;;;5013298;28;20034;-72
2022/09/11 10:46:36;;;;;;;2.55;1.20;;;20.40;99.90;;;;;;5019922;28;20033;-70
2022/09/11 10:49:04;;;;;;;2.67;1.33;;;20.60;99.90;;;;;;5015116;28;20026;-72
2022/09/11 10:51:36;;;;;;;2.28;0.90;;;20.70;99.90;;;;;;5021531;28;20052;-70
2022/09/11 10:54:21;;;;;;;1.85;0.85;;;20.80;99.90;;;;;;5020987;28;20026;-71
2022/09/11 10:56:59;;;;;;;5.80;1.25;;;20.90;99.90;;;;;;5022642;28;20053;-71
2022/09/11 10:59:39;;;;;;;2.88;0.90;;;21.10;99.90;;;;;;5014616;28;20037;-70
2022/09/11 11:02:28;;;;;;;3.47;0.70;;;21.00;99.90;;;;;;5022585;28;20124;-72
2022/09/11 11:04:56;;;;;;;4.90;0.73;;;21.10;99.90;;;;;;5019323;28;20041;-71
2022/09/11 11:07:49;;;;;;;1.10;0.50;;;21.10;99.90;;;;;;5018065;28;20513;-72
2022/09/11 11:10:33;;;;;;;2.47;0.50;;;21.10;99.90;;;;;;5018317;28;20811;-72
2022/09/11 11:13:44;;;;;;;2.63;0.60;;;21.40;99.90;;;;;;5018153;28;20051;-72
2022/09/11 11:16:45;;;;;;;4.72;0.70;;;21.70;99.90;;;;;;5020144;28;20036;-72
2022/09/11 11:19:17;;;;;;;3.67;0.80;;;21.90;99.90;;;;;;4998896;28;20117;-72
2022/09/11 11:22:01;;;;;;;2.95;0.52;;;22.10;99.90;;;;;;5015355;28;20409;-71
2022/09/11 11:24:59;;;;;;;1.25;0.55;;;22.10;99.90;;;;;;5015292;28;20545;-72
2022/09/11 11:28:15;;;;;;;2.33;0.63;;;22.20;99.90;;;;;;5018653;28;20030;-72
2022/09/11 11:30:46;;;;;;;7.25;1.08;;;22.10;99.90;;;;;;4978949;28;20133;-72
2022/09/11 11:33:21;;;;;;;1.75;0.82;;;21.90;99.90;;;;;;5007698;28;20410;-72
2022/09/11 11:36:14;;;;;;;1.30;0.50;;;21.70;99.90;;;;;;5016408;28;20125;-71
2022/09/11 11:38:51;;;;;;;1.65;0.73;;;21.40;99.90;;;;;;5013142;28;20040;-71
2022/09/11 11:41:21;;;;;;;2.45;0.70;;;21.10;99.90;;;;;;5016878;28;20037;-71
2022/09/11 11:43:51;;;;;;;2.47;1.40;;;21.10;99.90;;;;;;5018862;28;20137;-70
2022/09/11 11:46:20;;;;;;;2.20;0.40;;;20.90;99.90;;;;;;5022038;28;20568;-72
2022/09/11 11:48:51;;;;;;;3.17;0.95;;;21.00;99.90;;;;;;5025095;28;20976;-72
2022/09/11 11:51:20;;;;;;;1.48;0.90;;;21.00;99.90;;;;;;5023390;28;20033;-72
2022/09/11 11:54:17;;;;;;;1.50;0.70;;;21.10;99.90;;;;;;5022937;28;20394;-71
2022/09/11 11:56:47;;;;;;;1.25;0.60;;;21.10;99.90;;;;;;5021030;28;20037;-72
2022/09/11 11:59:40;;;;;;;2.10;0.70;;;21.20;99.90;;;;;;5015826;28;20033;-70
2022/09/11 12:02:06;;;;;;;2.00;0.60;;;21.20;99.90;;;;;;5021437;28;20036;-73
2022/09/11 12:04:39;;;;;;;3.53;0.57;;;21.20;99.90;;;;;;5024327;28;20041;-70
2022/09/11 12:07:15;;;;;;;4.97;0.68;;;21.20;99.90;;;;;;5022984;28;20116;-72
2022/09/11 12:09:48;;;;;;;1.63;0.60;;;21.30;99.90;;;;;;5026047;28;20034;-72
2022/09/11 12:12:15;;;;;;;3.45;0.77;;;21.30;99.90;;;;;;5025979;28;20040;-72
2022/09/11 12:15:08;;;;;;;2.63;0.73;;;21.40;99.90;;;;;;5025576;28;20552;-72
2022/09/11 12:17:37;;;;;;;2.90;0.80;;;21.40;99.90;;;;;;5022380;28;20037;-72
2022/09/11 12:20:28;;;;;;;1.15;0.30;;;21.50;99.90;;;;;;5024527;28;20038;-69
2022/09/11 12:22:54;;;;;;;1.27;0.60;;;21.60;99.90;;;;;;5015516;28;20034;-72
2022/09/11 12:25:20;;;;;;;5.47;0.60;;;21.70;99.90;;;;;;5025546;28;20038;-73
2022/09/11 12:27:45;;;;;;;3.83;0.68;;;21.90;99.90;;;;;;5017530;28;20041;-73
2022/09/11 12:30:17;;;;;;;1.05;0.30;;;22.00;99.90;;;;;;5018483;28;20391;-71
2022/09/11 12:32:50;;;;;;;0.90;0.40;;;22.00;99.90;;;;;;5018195;28;20505;-70
2022/09/11 12:35:40;;;;;;;2.25;0.50;;;22.00;99.90;;;;;;5018004;28;20524;-71
2022/09/11 12:38:05;;;;;;;1.38;0.50;;;21.90;99.90;;;;;;5017299;28;20064;-72
2022/09/11 12:40:34;;;;;;;1.15;0.55;;;21.90;99.90;;;;;;5020838;28;20955;-73
2022/09/11 12:43:27;;;;;;;1.83;0.45;;;21.90;99.90;;;;;;5019053;28;20137;-73
2022/09/11 12:45:53;;;;;;;1.52;0.30;;;21.80;99.90;;;;;;5015916;28;20033;-72
2022/09/11 12:48:24;;;;;;;1.15;0.28;;;21.60;99.90;;;;;;5021946;28;20059;-72
2022/09/11 12:50:54;;;;;;;2.88;0.77;;;21.60;99.90;;;;;;5014143;28;20053;-72
2022/09/11 12:53:25;;;;;;;3.20;0.40;;;21.60;99.90;;;;;;5017403;28;20107;-72
2022/09/11 12:56:01;;;;;;;3.00;0.28;;;21.60;99.90;;;;;;5017968;28;20037;-72
2022/09/11 12:58:50;;;;;;;1.58;0.30;;;21.60;99.90;;;;;;5015227;28;20041;-73
2022/09/11 13:01:23;;;;;;;1.02;0.40;;;21.60;99.90;;;;;;5017078;28;20029;-72
2022/09/11 13:04:00;;;;;;;1.27;0.20;;;21.60;99.90;;;;;;5015096;28;20038;-71